Time;durP1;ratioP1;P1;durP2;ratioP2;P2;SDS_P1;SDS_P2;PMS_P1;PMS_P2;Temp;Humidity;BMP_temperature;BMP_pressure;BME280_temperature;BME280_humidity;BME280_pressure;Samples;Min_cycle;Max_cycle;Signal;HPM_P1;HPM_P2
2023/06/15 00:01:21;;;;;;;;;;;;;;;16.66;45.85;97994.03;5066001;28;20365;-61
2023/06/15 00:03:48;;;;;;;;;;;;;;;16.69;46.35;97995.28;5053394;28;20312;-61
2023/06/15 00:06:18;;;;;;;;;;;;;;;16.63;46.00;97994.75;5070437;28;19924;-61
2023/06/15 00:08:46;;;;;;;;;;;;;;;16.62;46.29;97990.41;5071032;28;20269;-61
2023/06/15 00:11:14;;;;;;;;;;;;;;;16.46;46.89;97992.31;5072259;28;19929;-61
2023/06/15 00:13:41;;;;;;;;;;;;;;;16.51;46.80;97992.03;5071059;28;19921;-61
2023/06/15 00:16:12;;;;;;;;;;;;;;;16.54;46.75;97996.81;5065533;28;19951;-61
2023/06/15 00:18:40;;;;;;;;;;;;;;;16.46;46.87;98000.53;5067889;28;19921;-61
2023/06/15 00:21:09;;;;;;;;;;;;;;;16.50;46.41;97996.72;5059355;28;19924;-60
2023/06/15 00:23:40;;;;;;;;;;;;;;;16.47;46.71;97993.88;5069094;28;19951;-61
2023/06/15 00:26:07;;;;;;;;;;;;;;;16.49;46.72;97991.59;5079369;28;20369;-61
2023/06/15 00:28:35;;;;;;;;;;;;;;;16.33;47.18;97993.47;5065641;28;19959;-61
2023/06/15 00:31:03;;;;;;;;;;;;;;;16.36;47.02;97995.53;5084148;28;19925;-61
2023/06/15 00:33:33;;;;;;;;;;;;;;;16.36;46.85;97995.53;5085714;28;19930;-61
2023/06/15 00:36:04;;;;;;;;;;;;;;;16.15;47.20;97996.47;5068176;28;20377;-60
2023/06/15 00:38:31;;;;;;;;;;;;;;;16.22;47.47;97995.88;5071329;28;20010;-60
2023/06/15 00:41:01;;;;;;;;;;;;;;;16.21;47.48;97995.09;5073706;28;20475;-60
2023/06/15 00:43:28;;;;;;;;;;;;;;;16.18;47.82;97997.72;5074829;28;20369;-60
2023/06/15 00:45:58;;;;;;;;;;;;;;;16.18;47.58;98001.25;5089631;28;19920;-61
2023/06/15 00:48:26;;;;;;;;;;;;;;;16.29;47.08;97995.28;5092015;28;19953;-60
2023/06/15 00:50:54;;;;;;;;;;;;;;;16.30;47.13;97996.88;5072057;28;20014;-61
2023/06/15 00:53:22;;;;;;;;;;;;;;;16.11;47.53;97995.56;5066159;28;19970;-61
2023/06/15 00:55:50;;;;;;;;;;;;;;;16.17;47.21;97998.88;5078918;28;19954;-61
2023/06/15 00:58:19;;;;;;;;;;;;;;;16.03;47.67;97996.47;5087772;28;19920;-61
2023/06/15 01:00:48;;;;;;;;;;;;;;;16.01;47.83;97996.03;5074119;28;19920;-61
2023/06/15 01:03:19;;;;;;;;;;;;;;;15.76;48.07;97995.25;5072462;28;19924;-61
2023/06/15 01:05:49;;;;;;;;;;;;;;;15.92;47.85;97996.16;5073056;28;19928;-61
2023/06/15 01:08:17;;;;;;;;;;;;;;;15.88;48.25;97989.78;5068412;28;20022;-61
2023/06/15 01:10:45;;;;;;;;;;;;;;;15.91;47.89;97991.03;5080397;28;19963;-61
2023/06/15 01:13:13;;;;;;;;;;;;;;;15.89;47.88;97985.09;5072727;28;20007;-61
2023/06/15 01:15:44;;;;;;;;;;;;;;;15.92;47.96;97987.13;5062914;28;19985;-60
2023/06/15 01:18:20;;;;;;;;;;;;;;;15.85;47.86;97986.94;5069966;28;19966;-61
2023/06/15 01:20:49;;;;;;;;;;;;;;;15.76;48.62;97991.72;5065939;28;19943;-60
2023/06/15 01:23:27;;;;;;;;;;;;;;;15.82;48.32;97988.44;5067689;28;19925;-60
2023/06/15 01:26:09;;;;;;;;;;;;;;;15.71;48.81;97987.25;5084231;28;19920;-60
2023/06/15 01:28:40;;;;;;;;;;;;;;;15.77;48.60;97990.59;5088291;28;20429;-61
2023/06/15 01:31:08;;;;;;;;;;;;;;;15.80;48.42;97987.97;5082652;28;19920;-61
2023/06/15 01:33:44;;;;;;;;;;;;;;;15.66;49.11;97980.09;5085743;28;20272;-61
2023/06/15 01:36:12;;;;;;;;;;;;;;;15.77;48.73;97980.44;5089873;28;19927;-60
2023/06/15 01:38:39;;;;;;;;;;;;;;;15.78;48.95;97989.47;5066222;28;19970;-61
2023/06/15 01:41:09;;;;;;;;;;;;;;;15.79;48.94;97982.81;5058511;28;19994;-60
2023/06/15 01:43:37;;;;;;;;;;;;;;;15.80;48.76;97979.72;5066310;28;20381;-60
2023/06/15 01:46:05;;;;;;;;;;;;;;;15.79;48.76;97982.81;5073794;28;20277;-61
2023/06/15 01:48:33;;;;;;;;;;;;;;;15.85;48.56;97984.97;5070837;28;19959;-61
2023/06/15 01:51:01;;;;;;;;;;;;;;;15.77;48.74;97979.66;5069304;28;20450;-61
2023/06/15 01:53:30;;;;;;;;;;;;;;;15.64;49.14;97982.38;5076674;28;19924;-60
2023/06/15 01:55:58;;;;;;;;;;;;;;;15.63;49.25;97979.97;5094795;28;19920;-60
2023/06/15 01:58:28;;;;;;;;;;;;;;;15.59;49.43;97985.31;5074541;28;19920;-61
2023/06/15 02:00:55;;;;;;;;;;;;;;;15.54;49.88;97992.94;5077253;28;20018;-60
2023/06/15 02:03:23;;;;;;;;;;;;;;;15.43;49.77;97987.13;5076114;28;19924;-61
2023/06/15 02:05:52;;;;;;;;;;;;;;;15.48;49.68;97989.63;5066350;28;20007;-61
2023/06/15 02:08:20;;;;;;;;;;;;;;;15.38;49.83;97984.59;5072320;28;19920;-60
2023/06/15 02:10:47;;;;;;;;;;;;;;;15.34;50.19;97986.41;5077079;28;19920;-60
2023/06/15 02:13:15;;;;;;;;;;;;;;;15.36;50.33;97981.41;5073105;28;19941;-61
2023/06/15 02:15:44;;;;;;;;;;;;;;;15.35;50.50;97985.31;5069511;28;19921;-61
2023/06/15 02:18:14;;;;;;;;;;;;;;;15.25;50.47;97983.81;5065498;28;19951;-60
2023/06/15 02:20:44;;;;;;;;;;;;;;;15.25;50.47;97991.22;5080155;28;19924;-60
2023/06/15 02:23:12;;;;;;;;;;;;;;;15.38;50.31;97990.88;5076471;28;19921;-61
2023/06/15 02:25:40;;;;;;;;;;;;;;;15.41;50.16;97992.16;5061086;28;20012;-60
2023/06/15 02:28:08;;;;;;;;;;;;;;;15.14;50.60;97990.84;5075075;28;19929;-60
2023/06/15 02:30:38;;;;;;;;;;;;;;;15.09;50.93;97991.88;5057464;28;19920;-60
2023/06/15 02:33:07;;;;;;;;;;;;;;;15.07;51.15;97980.44;5072012;28;19920;-61
2023/06/15 02:35:35;;;;;;;;;;;;;;;15.09;51.16;97983.66;5075439;28;19928;-60
2023/06/15 02:38:03;;;;;;;;;;;;;;;15.02;51.44;97983.44;5073425;28;19956;-61
2023/06/15 02:40:31;;;;;;;;;;;;;;;15.08;51.55;97981.28;5064031;28;20266;-61
2023/06/15 02:42:59;;;;;;;;;;;;;;;15.10;51.44;97978.97;5072826;28;19966;-61
2023/06/15 02:45:26;;;;;;;;;;;;;;;15.03;51.43;97987.75;5071853;28;19928;-61
2023/06/15 02:47:55;;;;;;;;;;;;;;;14.90;51.92;97991.59;5062630;28;20428;-60
2023/06/15 02:50:25;;;;;;;;;;;;;;;14.84;52.07;97991.00;5071232;28;19920;-60
2023/06/15 02:53:06;;;;;;;;;;;;;;;14.91;51.91;97999.47;5071863;28;19963;-61
2023/06/15 02:55:38;;;;;;;;;;;;;;;14.95;52.13;98002.31;5071830;28;19925;-61
2023/06/15 02:58:07;;;;;;;;;;;;;;;14.93;51.80;98002.66;5072396;28;19929;-61
2023/06/15 03:00:48;;;;;;;;;;;;;;;14.80;52.21;98002.94;5069901;28;20765;-61
2023/06/15 03:03:27;;;;;;;;;;;;;;;14.81;52.41;98005.34;5066079;28;19920;-61
2023/06/15 03:05:59;;;;;;;;;;;;;;;14.77;52.17;98007.16;5068097;28;19920;-61
2023/06/15 03:08:33;;;;;;;;;;;;;;;14.77;52.45;98012.63;5079906;28;19974;-61
2023/06/15 03:11:23;;;;;;;;;;;;;;;14.81;52.33;98013.56;5065449;28;19921;-61
2023/06/15 03:13:53;;;;;;;;;;;;;;;14.73;52.28;98014.44;5065261;28;19932;-61
2023/06/15 03:16:25;;;;;;;;;;;;;;;14.79;52.33;98017.75;5066782;28;19920;-61
2023/06/15 03:18:56;;;;;;;;;;;;;;;14.73;52.62;98016.38;5073000;28;20285;-68
2023/06/15 03:21:26;;;;;;;;;;;;;;;14.79;52.34;98020.50;5071798;28;19981;-60
2023/06/15 03:23:57;;;;;;;;;;;;;;;14.61;52.75;98023.38;5068126;28;19951;-61
2023/06/15 03:26:26;;;;;;;;;;;;;;;14.57;52.88;98016.97;5068460;28;19928;-60
2023/06/15 03:28:57;;;;;;;;;;;;;;;14.45;53.10;98021.56;5082166;28;20319;-61
2023/06/15 03:31:28;;;;;;;;;;;;;;;14.51;53.18;98017.53;5067120;28;19921;-60
2023/06/15 03:33:58;;;;;;;;;;;;;;;14.54;53.11;98017.66;5066864;28;20018;-61
2023/06/15 03:36:29;;;;;;;;;;;;;;;14.47;53.26;98022.03;5055365;28;20389;-61
2023/06/15 03:38:57;;;;;;;;;;;;;;;14.50;53.19;98024.13;5064531;28;19920;-61
2023/06/15 03:41:26;;;;;;;;;;;;;;;14.40;53.75;98025.31;5059764;28;19952;-60
2023/06/15 03:43:56;;;;;;;;;;;;;;;14.35;53.64;98030.97;5074135;28;19939;-61
2023/06/15 03:46:24;;;;;;;;;;;;;;;14.34;54.00;98029.38;5067891;28;19943;-61
2023/06/15 03:48:52;;;;;;;;;;;;;;;14.31;53.93;98041.75;5066310;28;19939;-61
2023/06/15 03:51:20;;;;;;;;;;;;;;;14.25;54.28;98043.09;5067664;28;20294;-60
2023/06/15 03:53:49;;;;;;;;;;;;;;;14.28;54.33;98036.97;5069369;28;19921;-61
2023/06/15 03:56:17;;;;;;;;;;;;;;;14.40;53.63;98041.69;5082025;28;19920;-61
2023/06/15 03:58:45;;;;;;;;;;;;;;;14.32;54.05;98050.75;5070261;28;19955;-60
2023/06/15 04:01:13;;;;;;;;;;;;;;;14.36;53.95;98043.50;5068550;28;19924;-60
2023/06/15 04:03:41;;;;;;;;;;;;;;;14.32;54.21;98048.00;5070240;28;19924;-61
2023/06/15 04:06:09;;;;;;;;;;;;;;;14.39;53.71;98051.03;5054143;28;20373;-61
2023/06/15 04:08:37;;;;;;;;;;;;;;;14.38;53.97;98057.59;5059868;28;19927;-61
2023/06/15 04:11:06;;;;;;;;;;;;;;;14.43;54.03;98046.47;5053133;28;19960;-61
2023/06/15 04:13:35;;;;;;;;;;;;;;;14.35;53.99;98059.09;5069557;28;19924;-61
2023/06/15 04:16:03;;;;;;;;;;;;;;;14.45;54.29;98057.91;5063400;28;19966;-61
2023/06/15 04:18:31;;;;;;;;;;;;;;;14.50;53.85;98060.47;5069241;28;19920;-61
2023/06/15 04:20:59;;;;;;;;;;;;;;;14.56;53.58;98059.13;5068321;28;19928;-61
2023/06/15 04:23:27;;;;;;;;;;;;;;;14.62;53.78;98068.72;5070390;28;19959;-61
2023/06/15 04:25:58;;;;;;;;;;;;;;;14.62;54.02;98068.72;5064046;28;20312;-61
2023/06/15 04:28:27;;;;;;;;;;;;;;;14.62;53.71;98074.19;5069447;28;19920;-60
2023/06/15 04:31:06;;;;;;;;;;;;;;;14.64;53.71;98071.13;5068649;28;19920;-61
2023/06/15 04:33:36;;;;;;;;;;;;;;;14.63;53.71;98075.00;5055713;28;19925;-61
2023/06/15 04:36:04;;;;;;;;;;;;;;;14.71;53.75;98070.59;5067718;28;19928;-61
2023/06/15 04:38:33;;;;;;;;;;;;;;;14.79;53.58;98067.78;5061685;28;20011;-61
2023/06/15 04:41:00;;;;;;;;;;;;;;;14.84;53.80;98070.31;5069645;28;19924;-61
2023/06/15 04:43:30;;;;;;;;;;;;;;;14.87;53.42;98068.84;5058043;28;19932;-61
2023/06/15 04:45:58;;;;;;;;;;;;;;;14.94;53.04;98074.56;5072501;28;19970;-61
2023/06/15 04:48:27;;;;;;;;;;;;;;;14.96;53.08;98076.97;5056529;28;20297;-61
2023/06/15 04:50:56;;;;;;;;;;;;;;;15.04;52.77;98085.09;5068823;28;19943;-61
2023/06/15 04:53:23;;;;;;;;;;;;;;;15.13;52.44;98077.63;5059447;28;19921;-61
2023/06/15 04:55:52;;;;;;;;;;;;;;;15.08;52.57;98085.25;5068944;28;19920;-61
2023/06/15 04:58:19;;;;;;;;;;;;;;;15.19;52.33;98083.69;5068920;28;19970;-61
2023/06/15 05:00:50;;;;;;;;;;;;;;;15.12;52.28;98086.16;5062806;28;19925;-61
2023/06/15 05:03:19;;;;;;;;;;;;;;;15.10;52.52;98077.50;5075283;28;20011;-61
2023/06/15 05:05:46;;;;;;;;;;;;;;;15.11;52.94;98079.09;5069729;28;20273;-61
2023/06/15 05:08:14;;;;;;;;;;;;;;;15.19;52.37;98076.28;5063889;28;19970;-61
2023/06/15 05:10:43;;;;;;;;;;;;;;;15.29;52.49;98080.53;5067929;28;20317;-61
2023/06/15 05:13:14;;;;;;;;;;;;;;;15.46;51.78;98083.06;5066325;28;19920;-60
2023/06/15 05:15:42;;;;;;;;;;;;;;;15.40;52.24;98078.97;5081074;28;19974;-61
2023/06/15 05:18:14;;;;;;;;;;;;;;;15.39;51.74;98076.53;5063762;28;19920;-61
2023/06/15 05:20:42;;;;;;;;;;;;;;;15.38;51.71;98077.69;5067447;28;19921;-61
2023/06/15 05:23:09;;;;;;;;;;;;;;;15.43;52.27;98080.19;5083042;28;19919;-61
2023/06/15 05:25:39;;;;;;;;;;;;;;;15.49;52.52;98078.03;5071664;28;19927;-60
2023/06/15 05:28:07;;;;;;;;;;;;;;;15.55;51.71;98066.53;5076004;28;19924;-61
2023/06/15 05:30:38;;;;;;;;;;;;;;;15.63;52.11;98078.56;5087921;28;19920;-62
2023/06/15 05:33:06;;;;;;;;;;;;;;;15.66;51.85;98073.22;5076775;28;19920;-61
2023/06/15 05:35:35;;;;;;;;;;;;;;;15.86;50.99;98082.47;5071942;28;20007;-60
2023/06/15 05:38:03;;;;;;;;;;;;;;;15.84;51.15;98078.47;5088923;28;19924;-61
2023/06/15 05:40:34;;;;;;;;;;;;;;;15.75;51.44;98083.25;5078403;28;19920;-61
2023/06/15 05:43:03;;;;;;;;;;;;;;;15.81;51.02;98084.63;5076689;28;19920;-61
2023/06/15 05:45:31;;;;;;;;;;;;;;;15.83;50.93;98090.59;5073977;28;19920;-61
2023/06/15 05:48:03;;;;;;;;;;;;;;;15.86;50.88;98082.47;5090465;28;20649;-61
2023/06/15 05:50:35;;;;;;;;;;;;;;;15.79;50.89;98082.25;5078187;28;19955;-61
2023/06/15 05:53:04;;;;;;;;;;;;;;;15.75;50.96;98086.78;5078565;28;20044;-62
2023/06/15 05:55:33;;;;;;;;;;;;;;;15.89;50.88;98089.22;5074301;28;19982;-68
2023/06/15 05:58:02;;;;;;;;;;;;;;;16.02;51.05;98090.81;5074926;28;19927;-61
2023/06/15 06:00:31;;;;;;;;;;;;;;;16.05;50.92;98097.56;5075445;28;19932;-61
2023/06/15 06:03:01;;;;;;;;;;;;;;;16.10;50.89;98092.66;5072773;28;19973;-61
2023/06/15 06:05:42;;;;;;;;;;;;;;;16.05;51.30;98098.34;5073011;28;19939;-61
2023/06/15 06:08:12;;;;;;;;;;;;;;;16.15;51.17;98105.31;5077706;28;20018;-61
2023/06/15 06:10:40;;;;;;;;;;;;;;;16.18;51.06;98105.41;5090864;28;20342;-61
2023/06/15 06:13:23;;;;;;;;;;;;;;;16.11;51.50;98099.72;5069446;28;19924;-63
2023/06/15 06:15:53;;;;;;;;;;;;;;;16.22;50.89;98111.81;5066568;28;20034;-61
2023/06/15 06:18:21;;;;;;;;;;;;;;;16.29;50.71;98099.47;5074579;28;19924;-61
2023/06/15 06:20:49;;;;;;;;;;;;;;;16.38;50.57;98109.19;5072358;28;19920;-61
2023/06/15 06:23:18;;;;;;;;;;;;;;;16.53;50.69;98106.88;5069136;28;19921;-61
2023/06/15 06:25:46;;;;;;;;;;;;;;;16.56;50.87;98104.22;5087944;28;19970;-61
2023/06/15 06:28:14;;;;;;;;;;;;;;;16.60;50.39;98107.09;5086411;28;19959;-61
2023/06/15 06:30:42;;;;;;;;;;;;;;;16.57;50.76;98108.59;5050541;28;20372;-61
2023/06/15 06:33:12;;;;;;;;;;;;;;;16.69;50.55;98113.25;5059416;28;19928;-61
2023/06/15 06:35:42;;;;;;;;;;;;;;;16.76;50.51;98106.06;5061155;28;19921;-61
2023/06/15 06:38:10;;;;;;;;;;;;;;;16.86;50.59;98106.72;5064877;28;19986;-61
2023/06/15 06:40:39;;;;;;;;;;;;;;;16.82;50.84;98111.28;5048520;28;20266;-61
2023/06/15 06:43:07;;;;;;;;;;;;;;;16.96;50.46;98104.28;5078494;28;19959;-61
2023/06/15 06:45:35;;;;;;;;;;;;;;;16.96;50.01;98106.22;5046796;28;19929;-61
2023/06/15 06:48:03;;;;;;;;;;;;;;;17.08;49.97;98106.19;5065688;28;19950;-60
2023/06/15 06:50:31;;;;;;;;;;;;;;;17.11;49.90;98113.72;5045154;28;19931;-61
2023/06/15 06:52:58;;;;;;;;;;;;;;;17.15;50.12;98111.88;5064894;28;20008;-60
2023/06/15 06:55:26;;;;;;;;;;;;;;;17.28;50.05;98118.91;5061904;28;19920;-61
2023/06/15 06:58:00;;;;;;;;;;;;;;;17.34;49.89;98113.97;5066383;28;19950;-61
2023/06/15 07:00:28;;;;;;;;;;;;;;;17.39;50.23;98112.91;5045138;28;20050;-60
2023/06/15 07:02:56;;;;;;;;;;;;;;;17.48;49.87;98119.84;5065700;28;20431;-61
2023/06/15 07:05:25;;;;;;;;;;;;;;;17.55;49.92;98116.50;5051847;28;19928;-60
2023/06/15 07:07:52;;;;;;;;;;;;;;;17.58;49.89;98115.78;5046018;28;19924;-60
2023/06/15 07:10:21;;;;;;;;;;;;;;;17.60;49.82;98120.94;5061025;28;19920;-61
2023/06/15 07:12:55;;;;;;;;;;;;;;;17.70;49.67;98115.72;5061427;28;19966;-60
2023/06/15 07:15:27;;;;;;;;;;;;;;;17.71;49.96;98114.56;5062787;28;19921;-61
2023/06/15 07:17:55;;;;;;;;;;;;;;;17.75;48.32;98110.00;5067140;28;19932;-61
2023/06/15 07:20:23;;;;;;;;;;;;;;;17.81;47.83;98118.78;5079217;28;20012;-60
2023/06/15 07:22:50;;;;;;;;;;;;;;;17.91;47.44;98112.75;5070030;28;19966;-61
2023/06/15 07:25:18;;;;;;;;;;;;;;;17.98;47.43;98109.38;5086602;28;19974;-61
2023/06/15 07:27:46;;;;;;;;;;;;;;;18.08;47.40;98106.09;5074226;28;19990;-61
2023/06/15 07:30:15;;;;;;;;;;;;;;;18.22;46.61;98103.69;5080147;28;19989;-61
2023/06/15 07:32:44;;;;;;;;;;;;;;;18.37;46.20;98104.00;5085029;28;19932;-61
2023/06/15 07:35:15;;;;;;;;;;;;;;;18.55;45.80;98110.72;5089510;28;19920;-61
2023/06/15 07:37:43;;;;;;;;;;;;;;;18.54;45.95;98111.88;5086533;28;20019;-61
2023/06/15 07:40:12;;;;;;;;;;;;;;;18.73;45.32;98103.69;5082130;28;19927;-61
2023/06/15 07:42:40;;;;;;;;;;;;;;;18.95;43.85;98110.44;5064623;28;19921;-61
2023/06/15 07:45:08;;;;;;;;;;;;;;;18.78;43.67;98108.91;5073849;28;20375;-61
2023/06/15 07:47:36;;;;;;;;;;;;;;;18.79;44.33;98107.72;5086201;28;19924;-61
2023/06/15 07:50:06;;;;;;;;;;;;;;;18.90;44.03;98101.66;5090223;28;19920;-61
2023/06/15 07:52:33;;;;;;;;;;;;;;;18.94;44.56;98102.53;5090041;28;20254;-61
2023/06/15 07:55:06;;;;;;;;;;;;;;;19.02;43.74;98101.53;5090690;28;19920;-61
2023/06/15 07:57:34;;;;;;;;;;;;;;;19.16;43.35;98093.53;5079555;28;19939;-61
2023/06/15 08:00:03;;;;;;;;;;;;;;;19.18;43.93;98099.50;5078524;28;19924;-61
2023/06/15 08:02:31;;;;;;;;;;;;;;;19.29;41.19;98091.44;5087702;28;19924;-61
2023/06/15 08:04:59;;;;;;;;;;;;;;;19.38;40.89;98092.78;5090343;28;20299;-61
2023/06/15 08:07:28;;;;;;;;;;;;;;;19.47;40.47;98097.28;5079499;28;20320;-60
2023/06/15 08:09:56;;;;;;;;;;;;;;;19.61;40.62;98103.09;5081599;28;19920;-61
2023/06/15 08:12:25;;;;;;;;;;;;;;;19.62;40.06;98099.19;5074953;28;19920;-61
2023/06/15 08:14:53;;;;;;;;;;;;;;;19.59;39.98;98099.91;5077074;28;20658;-61
2023/06/15 08:17:21;;;;;;;;;;;;;;;19.63;40.28;98096.03;5089296;28;19970;-61
2023/06/15 08:19:49;;;;;;;;;;;;;;;19.74;40.07;98089.94;5082271;28;19975;-61
2023/06/15 08:22:17;;;;;;;;;;;;;;;19.79;38.60;98093.16;5071908;28;20023;-61
2023/06/15 08:24:46;;;;;;;;;;;;;;;19.74;38.23;98089.94;5064799;28;19933;-61
2023/06/15 08:27:14;;;;;;;;;;;;;;;19.70;39.56;98095.38;5061623;28;19924;-61
2023/06/15 08:29:44;;;;;;;;;;;;;;;19.80;39.27;98096.72;5065707;28;19920;-61
2023/06/15 08:32:13;;;;;;;;;;;;;;;19.84;39.39;98095.63;5064771;28;19989;-60
2023/06/15 08:34:42;;;;;;;;;;;;;;;20.01;38.81;98099.84;5068717;28;19921;-62
2023/06/15 08:37:12;;;;;;;;;;;;;;;19.94;38.73;98098.94;5071145;28;19928;-61
2023/06/15 08:39:40;;;;;;;;;;;;;;;20.03;37.77;98091.22;5057946;28;19925;-61
2023/06/15 08:42:09;;;;;;;;;;;;;;;20.08;37.57;98091.69;5067274;28;19973;-61
2023/06/15 08:44:37;;;;;;;;;;;;;;;20.01;37.65;98094.31;5054217;28;19927;-61
2023/06/15 08:47:05;;;;;;;;;;;;;;;20.12;38.15;98088.97;5053873;28;19920;-62
2023/06/15 08:49:34;;;;;;;;;;;;;;;20.11;37.61;98092.91;5082325;28;20014;-61
2023/06/15 08:52:02;;;;;;;;;;;;;;;20.05;35.75;98092.44;5065325;28;19932;-61
2023/06/15 08:54:31;;;;;;;;;;;;;;;20.09;36.86;98075.94;5057874;28;20392;-61
2023/06/15 08:56:59;;;;;;;;;;;;;;;20.17;36.69;98085.91;5062647;28;19932;-61
2023/06/15 08:59:29;;;;;;;;;;;;;;;20.30;36.52;98084.56;5060606;28;20251;-61
2023/06/15 09:01:57;;;;;;;;;;;;;;;20.36;36.95;98076.75;5065622;28;19933;-62
2023/06/15 09:04:25;;;;;;;;;;;;;;;20.49;36.72;98082.88;5068475;28;19927;-61
2023/06/15 09:06:53;;;;;;;;;;;;;;;20.39;35.68;98074.03;5064355;28;19959;-61
2023/06/15 09:09:21;;;;;;;;;;;;;;;20.39;34.77;98082.31;5063919;28;19951;-61
2023/06/15 09:11:49;;;;;;;;;;;;;;;20.56;36.13;98077.44;5056947;28;20019;-65
2023/06/15 09:14:16;;;;;;;;;;;;;;;20.68;36.36;98071.72;5059338;28;20309;-61
2023/06/15 09:16:46;;;;;;;;;;;;;;;20.75;35.97;98076.53;5069912;28;19920;-61
2023/06/15 09:19:16;;;;;;;;;;;;;;;20.86;34.01;98072.72;5062838;28;20007;-61
2023/06/15 09:21:49;;;;;;;;;;;;;;;20.83;33.73;98079.00;5068920;28;19924;-62
2023/06/15 09:24:16;;;;;;;;;;;;;;;20.72;34.46;98078.09;5070674;28;19924;-61
2023/06/15 09:26:45;;;;;;;;;;;;;;;20.80;34.48;98077.00;5084970;28;20376;-61
2023/06/15 09:29:13;;;;;;;;;;;;;;;20.78;35.15;98078.56;5078242;28;20300;-61
2023/06/15 09:31:41;;;;;;;;;;;;;;;20.83;34.91;98067.97;5067178;28;19959;-61
2023/06/15 09:34:11;;;;;;;;;;;;;;;20.92;36.08;98076.75;5079773;28;19925;-61
2023/06/15 09:36:44;;;;;;;;;;;;;;;20.80;34.68;98068.72;5088682;28;20166;-61
2023/06/15 09:39:13;;;;;;;;;;;;;;;20.83;35.88;98065.22;5087237;28;19926;-61
2023/06/15 09:41:51;;;;;;;;;;;;;;;20.82;35.68;98062.81;5081922;28;20273;-61
2023/06/15 09:44:19;;;;;;;;;;;;;;;21.10;34.60;98070.66;5078017;28;20018;-61
2023/06/15 09:46:49;;;;;;;;;;;;;;;21.07;34.47;98060.34;5080274;28;19974;-61
2023/06/15 09:49:25;;;;;;;;;;;;;;;21.14;36.07;98063.19;5079843;28;19971;-62
2023/06/15 09:51:54;;;;;;;;;;;;;;;21.08;34.88;98068.25;5084317;28;19920;-61
2023/06/15 09:54:23;;;;;;;;;;;;;;;21.05;34.82;98068.22;5083720;28;20268;-61
2023/06/15 09:56:51;;;;;;;;;;;;;;;20.89;33.60;98068.44;5087956;28;19920;-61
2023/06/15 09:59:20;;;;;;;;;;;;;;;20.99;33.75;98067.78;5072274;28;19931;-61
2023/06/15 10:01:49;;;;;;;;;;;;;;;20.86;34.91;98072.72;5091227;28;20018;-61
2023/06/15 10:04:17;;;;;;;;;;;;;;;20.65;34.22;98067.72;5086326;28;20338;-62
2023/06/15 10:06:48;;;;;;;;;;;;;;;20.88;33.89;98066.84;5086567;28;19924;-61
2023/06/15 10:09:16;;;;;;;;;;;;;;;20.80;34.40;98070.66;5086874;28;20359;-62
2023/06/15 10:11:44;;;;;;;;;;;;;;;20.92;33.88;98064.91;5085260;28;19920;-61
2023/06/15 10:14:14;;;;;;;;;;;;;;;20.82;34.76;98066.34;5085553;28;19920;-61
2023/06/15 10:16:42;;;;;;;;;;;;;;;20.82;35.83;98060.03;5090721;28;19969;-61
2023/06/15 10:19:11;;;;;;;;;;;;;;;20.74;36.53;98061.13;5074360;28;19927;-61
2023/06/15 10:21:39;;;;;;;;;;;;;;;20.70;36.15;98061.06;5088749;28;20348;-61
2023/06/15 10:24:09;;;;;;;;;;;;;;;20.78;34.69;98064.75;5079178;28;20356;-61
2023/06/15 10:26:40;;;;;;;;;;;;;;;20.88;34.91;98061.31;5080979;28;21241;-61
2023/06/15 10:29:11;;;;;;;;;;;;;;;21.07;34.48;98063.13;5068546;28;19966;-61
2023/06/15 10:31:41;;;;;;;;;;;;;;;20.90;34.30;98062.53;5089534;28;20377;-61
2023/06/15 10:34:10;;;;;;;;;;;;;;;20.91;34.37;98064.09;5091119;28;19924;-61
2023/06/15 10:36:40;;;;;;;;;;;;;;;20.86;34.74;98061.69;5085638;28;19927;-61
2023/06/15 10:39:11;;;;;;;;;;;;;;;20.82;35.48;98060.84;5088491;28;19946;-61
2023/06/15 10:41:39;;;;;;;;;;;;;;;20.88;36.13;98059.34;5087478;28;19920;-61
2023/06/15 10:44:07;;;;;;;;;;;;;;;20.89;35.09;98055.41;5085007;28;19955;-62
2023/06/15 10:46:35;;;;;;;;;;;;;;;21.09;36.24;98058.00;5086820;28;19928;-62
2023/06/15 10:49:03;;;;;;;;;;;;;;;21.23;34.16;98052.63;5075900;28;20503;-61
2023/06/15 10:51:33;;;;;;;;;;;;;;;21.10;34.21;98049.34;5075959;28;19924;-61
2023/06/15 10:54:03;;;;;;;;;;;;;;;21.06;35.52;98056.00;5076643;28;19928;-61
2023/06/15 10:56:32;;;;;;;;;;;;;;;21.14;35.94;98049.38;5091458;28;19955;-62
2023/06/15 10:59:01;;;;;;;;;;;;;;;21.23;35.11;98049.88;5085190;28;19920;-61
2023/06/15 11:01:29;;;;;;;;;;;;;;;21.31;33.39;98051.59;5074828;28;20319;-61
2023/06/15 11:03:57;;;;;;;;;;;;;;;21.33;35.88;98045.66;5091289;28;19950;-61
2023/06/15 11:06:30;;;;;;;;;;;;;;;21.39;36.26;98050.47;5079118;28;19951;-61
2023/06/15 11:09:01;;;;;;;;;;;;;;;21.42;34.83;98049.72;5083000;28;19933;-62
2023/06/15 11:11:32;;;;;;;;;;;;;;;21.53;33.67;98043.50;5084745;28;19920;-62
2023/06/15 11:14:02;;;;;;;;;;;;;;;21.59;34.35;98030.91;5082904;28;20014;-62
2023/06/15 11:16:33;;;;;;;;;;;;;;;21.75;32.83;98033.44;5079084;28;19926;-61
2023/06/15 11:19:31;;;;;;;;;;;;;;;21.74;34.92;98032.63;5085202;28;19931;-61
2023/06/15 11:22:00;;;;;;;;;;;;;;;21.75;34.86;98025.94;5039686;28;19955;-62
2023/06/15 11:24:29;;;;;;;;;;;;;;;21.84;31.16;98028.34;5073850;28;19932;-61
2023/06/15 11:27:01;;;;;;;;;;;;;;;21.89;34.52;98017.75;5082461;28;19920;-62
2023/06/15 11:29:33;;;;;;;;;;;;;;;21.79;31.84;98028.72;5080525;28;19966;-61
2023/06/15 11:32:02;;;;;;;;;;;;;;;21.77;33.62;98028.31;5086399;28;19920;-62
2023/06/15 11:34:32;;;;;;;;;;;;;;;21.80;32.98;98019.25;5083800;28;19920;-62
2023/06/15 11:37:00;;;;;;;;;;;;;;;21.68;32.49;98023.13;5068263;28;19924;-61
2023/06/15 11:39:29;;;;;;;;;;;;;;;21.55;33.21;98024.56;5083340;28;19921;-61
2023/06/15 11:41:57;;;;;;;;;;;;;;;21.62;32.66;98030.16;5084542;28;19965;-62
2023/06/15 11:44:27;;;;;;;;;;;;;;;21.49;32.69;98020.56;5085797;28;20254;-61
2023/06/15 11:46:56;;;;;;;;;;;;;;;21.36;33.45;98018.09;5085353;28;19920;-61
2023/06/15 11:49:24;;;;;;;;;;;;;;;21.27;33.51;98023.09;5083645;28;19920;-61
2023/06/15 11:51:53;;;;;;;;;;;;;;;21.40;32.71;98024.41;5072383;28;19927;-61
2023/06/15 11:54:24;;;;;;;;;;;;;;;21.36;33.01;98012.56;5084673;28;20010;-62
2023/06/15 11:57:03;;;;;;;;;;;;;;;21.30;32.89;98016.81;5081605;28;19954;-61
2023/06/15 11:59:33;;;;;;;;;;;;;;;21.36;34.40;98008.97;5070400;28;20258;-62
2023/06/15 12:02:01;;;;;;;;;;;;;;;21.39;33.71;98002.69;5085163;28;19931;-61
2023/06/15 12:04:31;;;;;;;;;;;;;;;21.46;35.04;98005.50;5086816;28;20028;-61
2023/06/15 12:07:01;;;;;;;;;;;;;;;21.50;33.88;98005.56;5081360;28;19966;-61
2023/06/15 12:09:28;;;;;;;;;;;;;;;21.59;35.08;97998.53;5084849;28;19920;-62
2023/06/15 12:11:56;;;;;;;;;;;;;;;21.66;35.44;98003.31;5084373;28;19931;-62
2023/06/15 12:14:25;;;;;;;;;;;;;;;21.68;35.92;97990.72;5088813;28;19920;-62
2023/06/15 12:16:54;;;;;;;;;;;;;;;21.83;34.56;97988.06;5085670;28;20015;-61
2023/06/15 12:19:22;;;;;;;;;;;;;;;21.78;32.91;97989.19;5078779;28;19924;-61
2023/06/15 12:21:50;;;;;;;;;;;;;;;21.80;34.76;97986.84;5077840;28;19920;-61
2023/06/15 12:24:18;;;;;;;;;;;;;;;21.80;34.99;97988.84;5060043;28;20359;-61
2023/06/15 12:26:50;;;;;;;;;;;;;;;21.73;33.67;97984.00;5065769;28;19924;-61
2023/06/15 12:29:18;;;;;;;;;;;;;;;21.83;32.48;97986.06;5064959;28;20392;-61
2023/06/15 12:31:49;;;;;;;;;;;;;;;21.91;34.80;97979.44;5068317;28;20022;-62
2023/06/15 12:34:22;;;;;;;;;;;;;;;21.98;34.44;97982.22;5067541;28;19920;-61
2023/06/15 12:36:50;;;;;;;;;;;;;;;22.03;33.49;97972.78;5061240;28;19931;-61
2023/06/15 12:39:18;;;;;;;;;;;;;;;22.37;30.68;97967.88;5063352;28;19932;-61
2023/06/15 12:41:46;;;;;;;;;;;;;;;22.52;30.09;97977.03;5062913;28;19921;-61
2023/06/15 12:44:15;;;;;;;;;;;;;;;22.46;31.33;97973.84;5072422;28;19921;-62
2023/06/15 12:46:42;;;;;;;;;;;;;;;22.35;32.05;97961.94;5059686;28;19920;-61
2023/06/15 12:49:10;;;;;;;;;;;;;;;22.30;31.05;97965.06;5061313;28;19940;-61
2023/06/15 12:51:41;;;;;;;;;;;;;;;22.31;32.89;97958.34;5064244;28;20749;-61
2023/06/15 12:54:11;;;;;;;;;;;;;;;22.30;33.18;97961.50;5065721;28;19920;-61
2023/06/15 12:56:39;;;;;;;;;;;;;;;22.23;31.37;97959.50;5066718;28;19990;-61
2023/06/15 12:59:06;;;;;;;;;;;;;;;22.19;31.89;97958.69;5061614;28;19960;-61